sensor_id;sensor_type;location;lat;lon;timestamp;P1;durP1;ratioP1;P2;durP2;ratioP2
65831;SDS011;52593;42.648;23.332;2023-08-06T00:01:46;5.83;;;2.50;;
65831;SDS011;52593;42.648;23.332;2023-08-06T00:04:11;8.13;;;2.63;;
65831;SDS011;52593;42.648;23.332;2023-08-06T00:06:37;9.20;;;2.60;;
65831;SDS011;52593;42.648;23.332;2023-08-06T00:09:02;8.60;;;3.07;;
65831;SDS011;52593;42.648;23.332;2023-08-06T00:11:28;8.77;;;3.05;;
65831;SDS011;52593;42.648;23.332;2023-08-06T00:13:53;8.73;;;2.83;;
65831;SDS011;52593;42.648;23.332;2023-08-06T00:16:18;6.70;;;2.47;;
65831;SDS011;52593;42.648;23.332;2023-08-06T00:18:44;6.13;;;2.30;;
65831;SDS011;52593;42.648;23.332;2023-08-06T00:21:09;5.97;;;2.50;;
65831;SDS011;52593;42.648;23.332;2023-08-06T00:23:37;5.97;;;2.40;;
65831;SDS011;52593;42.648;23.332;2023-08-06T00:26:02;5.97;;;2.37;;
65831;SDS011;52593;42.648;23.332;2023-08-06T00:28:28;8.45;;;2.42;;
65831;SDS011;52593;42.648;23.332;2023-08-06T00:30:53;6.87;;;2.03;;
65831;SDS011;52593;42.648;23.332;2023-08-06T00:33:20;5.70;;;2.35;;
65831;SDS011;52593;42.648;23.332;2023-08-06T00:35:46;6.93;;;2.23;;
65831;SDS011;52593;42.648;23.332;2023-08-06T00:38:11;6.20;;;2.25;;
65831;SDS011;52593;42.648;23.332;2023-08-06T00:40:37;8.30;;;2.60;;
65831;SDS011;52593;42.648;23.332;2023-08-06T00:43:02;6.30;;;2.30;;
65831;SDS011;52593;42.648;23.332;2023-08-06T00:45:28;7.83;;;2.33;;
65831;SDS011;52593;42.648;23.332;2023-08-06T00:47:55;5.82;;;2.30;;
65831;SDS011;52593;42.648;23.332;2023-08-06T00:50:21;6.15;;;2.28;;
65831;SDS011;52593;42.648;23.332;2023-08-06T00:52:47;6.23;;;2.37;;
65831;SDS011;52593;42.648;23.332;2023-08-06T00:55:16;6.60;;;2.30;;
65831;SDS011;52593;42.648;23.332;2023-08-06T00:57:42;6.35;;;2.22;;
65831;SDS011;52593;42.648;23.332;2023-08-06T01:00:07;6.00;;;2.27;;
65831;SDS011;52593;42.648;23.332;2023-08-06T01:02:33;8.35;;;2.53;;
65831;SDS011;52593;42.648;23.332;2023-08-06T01:04:58;7.00;;;2.40;;
65831;SDS011;52593;42.648;23.332;2023-08-06T01:07:37;7.10;;;2.20;;
65831;SDS011;52593;42.648;23.332;2023-08-06T01:15:41;7.63;;;2.83;;
65831;SDS011;52593;42.648;23.332;2023-08-06T01:18:08;6.03;;;2.60;;
65831;SDS011;52593;42.648;23.332;2023-08-06T01:20:35;7.00;;;2.63;;
65831;SDS011;52593;42.648;23.332;2023-08-06T01:23:00;7.73;;;2.73;;
65831;SDS011;52593;42.648;23.332;2023-08-06T01:25:28;6.75;;;2.72;;
65831;SDS011;52593;42.648;23.332;2023-08-06T01:27:59;8.53;;;2.80;;
65831;SDS011;52593;42.648;23.332;2023-08-06T01:30:32;7.60;;;2.50;;
65831;SDS011;52593;42.648;23.332;2023-08-06T01:33:03;7.55;;;2.65;;
65831;SDS011;52593;42.648;23.332;2023-08-06T01:35:32;7.15;;;2.95;;
65831;SDS011;52593;42.648;23.332;2023-08-06T01:38:00;7.32;;;2.70;;
65831;SDS011;52593;42.648;23.332;2023-08-06T01:40:26;7.10;;;2.97;;
65831;SDS011;52593;42.648;23.332;2023-08-06T01:42:53;7.35;;;3.08;;
65831;SDS011;52593;42.648;23.332;2023-08-06T01:45:18;9.00;;;3.57;;
65831;SDS011;52593;42.648;23.332;2023-08-06T01:47:44;9.00;;;3.60;;
65831;SDS011;52593;42.648;23.332;2023-08-06T01:50:09;7.60;;;3.70;;
65831;SDS011;52593;42.648;23.332;2023-08-06T01:52:35;10.67;;;4.60;;
65831;SDS011;52593;42.648;23.332;2023-08-06T01:55:00;8.97;;;4.00;;
65831;SDS011;52593;42.648;23.332;2023-08-06T01:57:25;11.07;;;3.90;;
65831;SDS011;52593;42.648;23.332;2023-08-06T01:59:51;7.80;;;2.90;;
65831;SDS011;52593;42.648;23.332;2023-08-06T02:02:16;7.20;;;3.10;;
65831;SDS011;52593;42.648;23.332;2023-08-06T02:04:41;8.30;;;3.50;;
65831;SDS011;52593;42.648;23.332;2023-08-06T02:07:07;8.47;;;3.20;;
65831;SDS011;52593;42.648;23.332;2023-08-06T02:09:32;7.22;;;3.40;;
65831;SDS011;52593;42.648;23.332;2023-08-06T02:11:58;7.33;;;3.30;;
65831;SDS011;52593;42.648;23.332;2023-08-06T02:14:23;6.97;;;2.87;;
65831;SDS011;52593;42.648;23.332;2023-08-06T02:16:49;6.53;;;2.73;;
65831;SDS011;52593;42.648;23.332;2023-08-06T02:19:15;6.63;;;2.90;;
65831;SDS011;52593;42.648;23.332;2023-08-06T02:21:40;7.80;;;3.10;;
65831;SDS011;52593;42.648;23.332;2023-08-06T02:24:06;6.17;;;2.50;;
65831;SDS011;52593;42.648;23.332;2023-08-06T02:26:31;6.10;;;2.70;;
65831;SDS011;52593;42.648;23.332;2023-08-06T02:28:57;5.82;;;2.47;;
65831;SDS011;52593;42.648;23.332;2023-08-06T02:31:22;7.63;;;2.80;;
65831;SDS011;52593;42.648;23.332;2023-08-06T02:33:48;7.77;;;3.07;;
65831;SDS011;52593;42.648;23.332;2023-08-06T02:36:13;8.30;;;2.83;;
65831;SDS011;52593;42.648;23.332;2023-08-06T02:38:38;7.90;;;3.50;;
65831;SDS011;52593;42.648;23.332;2023-08-06T02:41:04;8.40;;;3.50;;
65831;SDS011;52593;42.648;23.332;2023-08-06T02:43:29;8.17;;;3.13;;
65831;SDS011;52593;42.648;23.332;2023-08-06T02:45:58;7.82;;;3.17;;
65831;SDS011;52593;42.648;23.332;2023-08-06T02:48:24;7.30;;;2.70;;
65831;SDS011;52593;42.648;23.332;2023-08-06T02:51:08;7.38;;;3.05;;
65831;SDS011;52593;42.648;23.332;2023-08-06T02:53:34;7.90;;;3.13;;
65831;SDS011;52593;42.648;23.332;2023-08-06T02:55:59;7.22;;;3.00;;
65831;SDS011;52593;42.648;23.332;2023-08-06T02:58:24;8.07;;;3.23;;
65831;SDS011;52593;42.648;23.332;2023-08-06T03:01:03;9.23;;;3.13;;
65831;SDS011;52593;42.648;23.332;2023-08-06T03:03:30;9.30;;;3.50;;
65831;SDS011;52593;42.648;23.332;2023-08-06T03:05:57;10.27;;;3.30;;
65831;SDS011;52593;42.648;23.332;2023-08-06T03:08:22;9.57;;;3.00;;
65831;SDS011;52593;42.648;23.332;2023-08-06T03:10:48;8.73;;;3.38;;
65831;SDS011;52593;42.648;23.332;2023-08-06T03:13:14;6.97;;;3.50;;
65831;SDS011;52593;42.648;23.332;2023-08-06T03:15:40;6.75;;;3.10;;
65831;SDS011;52593;42.648;23.332;2023-08-06T03:18:06;6.17;;;2.97;;
65831;SDS011;52593;42.648;23.332;2023-08-06T03:20:34;7.43;;;2.90;;
65831;SDS011;52593;42.648;23.332;2023-08-06T03:22:59;6.38;;;2.70;;
65831;SDS011;52593;42.648;23.332;2023-08-06T03:25:25;7.87;;;3.17;;
65831;SDS011;52593;42.648;23.332;2023-08-06T03:27:50;7.97;;;3.00;;
65831;SDS011;52593;42.648;23.332;2023-08-06T03:30:15;10.90;;;3.40;;
65831;SDS011;52593;42.648;23.332;2023-08-06T03:32:41;6.35;;;3.00;;
65831;SDS011;52593;42.648;23.332;2023-08-06T03:35:06;5.77;;;2.60;;
65831;SDS011;52593;42.648;23.332;2023-08-06T03:37:32;7.90;;;2.83;;
65831;SDS011;52593;42.648;23.332;2023-08-06T03:39:57;5.87;;;2.70;;
65831;SDS011;52593;42.648;23.332;2023-08-06T03:42:23;7.57;;;2.40;;
65831;SDS011;52593;42.648;23.332;2023-08-06T03:44:48;6.53;;;2.63;;
65831;SDS011;52593;42.648;23.332;2023-08-06T03:47:13;7.97;;;3.20;;
65831;SDS011;52593;42.648;23.332;2023-08-06T03:49:39;7.70;;;2.87;;
65831;SDS011;52593;42.648;23.332;2023-08-06T03:52:05;6.88;;;2.90;;
65831;SDS011;52593;42.648;23.332;2023-08-06T03:54:30;6.10;;;2.90;;
65831;SDS011;52593;42.648;23.332;2023-08-06T03:56:56;6.40;;;2.60;;
65831;SDS011;52593;42.648;23.332;2023-08-06T03:59:21;9.07;;;3.10;;
65831;SDS011;52593;42.648;23.332;2023-08-06T04:01:47;8.00;;;2.93;;
65831;SDS011;52593;42.648;23.332;2023-08-06T04:04:12;8.13;;;3.03;;
65831;SDS011;52593;42.648;23.332;2023-08-06T04:06:37;6.37;;;2.77;;
65831;SDS011;52593;42.648;23.332;2023-08-06T04:09:03;8.20;;;3.30;;
65831;SDS011;52593;42.648;23.332;2023-08-06T04:11:28;9.07;;;3.10;;
65831;SDS011;52593;42.648;23.332;2023-08-06T04:13:54;6.43;;;2.80;;
65831;SDS011;52593;42.648;23.332;2023-08-06T04:16:20;6.13;;;3.00;;
65831;SDS011;52593;42.648;23.332;2023-08-06T04:18:46;7.25;;;3.03;;
65831;SDS011;52593;42.648;23.332;2023-08-06T04:21:11;8.00;;;3.10;;
65831;SDS011;52593;42.648;23.332;2023-08-06T04:23:37;6.37;;;3.00;;
65831;SDS011;52593;42.648;23.332;2023-08-06T04:26:02;6.30;;;2.78;;
65831;SDS011;52593;42.648;23.332;2023-08-06T04:28:28;8.03;;;3.20;;
65831;SDS011;52593;42.648;23.332;2023-08-06T04:30:53;7.20;;;3.13;;
65831;SDS011;52593;42.648;23.332;2023-08-06T04:33:19;8.70;;;3.10;;
65831;SDS011;52593;42.648;23.332;2023-08-06T04:35:45;6.53;;;3.00;;
65831;SDS011;52593;42.648;23.332;2023-08-06T04:38:10;7.63;;;3.10;;
65831;SDS011;52593;42.648;23.332;2023-08-06T04:40:36;7.27;;;3.10;;
65831;SDS011;52593;42.648;23.332;2023-08-06T04:43:02;6.28;;;2.70;;
65831;SDS011;52593;42.648;23.332;2023-08-06T04:45:27;6.17;;;2.60;;
65831;SDS011;52593;42.648;23.332;2023-08-06T04:47:53;6.80;;;3.10;;
65831;SDS011;52593;42.648;23.332;2023-08-06T04:50:19;6.40;;;2.70;;
65831;SDS011;52593;42.648;23.332;2023-08-06T04:52:45;6.30;;;2.75;;
65831;SDS011;52593;42.648;23.332;2023-08-06T04:55:10;6.97;;;2.67;;
65831;SDS011;52593;42.648;23.332;2023-08-06T04:57:35;6.70;;;2.97;;
65831;SDS011;52593;42.648;23.332;2023-08-06T05:00:01;7.30;;;3.37;;
65831;SDS011;52593;42.648;23.332;2023-08-06T05:02:26;7.53;;;3.33;;
65831;SDS011;52593;42.648;23.332;2023-08-06T05:04:51;8.20;;;3.30;;
65831;SDS011;52593;42.648;23.332;2023-08-06T05:07:17;9.40;;;3.80;;
65831;SDS011;52593;42.648;23.332;2023-08-06T05:09:43;8.02;;;3.42;;
65831;SDS011;52593;42.648;23.332;2023-08-06T05:12:08;10.33;;;4.40;;
65831;SDS011;52593;42.648;23.332;2023-08-06T05:14:34;9.83;;;4.40;;
65831;SDS011;52593;42.648;23.332;2023-08-06T05:16:59;8.90;;;4.20;;
65831;SDS011;52593;42.648;23.332;2023-08-06T05:19:27;11.35;;;4.30;;
65831;SDS011;52593;42.648;23.332;2023-08-06T05:21:52;10.57;;;5.00;;
65831;SDS011;52593;42.648;23.332;2023-08-06T05:24:18;8.23;;;4.23;;
65831;SDS011;52593;42.648;23.332;2023-08-06T05:26:43;8.80;;;4.10;;
65831;SDS011;52593;42.648;23.332;2023-08-06T05:29:11;11.48;;;4.40;;
65831;SDS011;52593;42.648;23.332;2023-08-06T05:31:37;9.03;;;4.20;;
65831;SDS011;52593;42.648;23.332;2023-08-06T05:34:02;10.80;;;4.93;;
65831;SDS011;52593;42.648;23.332;2023-08-06T05:36:28;12.70;;;5.55;;
65831;SDS011;52593;42.648;23.332;2023-08-06T05:38:53;16.40;;;7.80;;
65831;SDS011;52593;42.648;23.332;2023-08-06T05:41:18;11.83;;;5.50;;
65831;SDS011;52593;42.648;23.332;2023-08-06T05:43:44;10.80;;;5.20;;
65831;SDS011;52593;42.648;23.332;2023-08-06T05:46:10;11.87;;;5.70;;
65831;SDS011;52593;42.648;23.332;2023-08-06T05:48:35;11.52;;;5.35;;
65831;SDS011;52593;42.648;23.332;2023-08-06T05:51:01;10.83;;;5.20;;
65831;SDS011;52593;42.648;23.332;2023-08-06T05:53:26;10.00;;;4.70;;
65831;SDS011;52593;42.648;23.332;2023-08-06T05:55:51;10.57;;;4.90;;
65831;SDS011;52593;42.648;23.332;2023-08-06T05:58:17;10.27;;;4.53;;
65831;SDS011;52593;42.648;23.332;2023-08-06T06:00:44;10.57;;;4.80;;
65831;SDS011;52593;42.648;23.332;2023-08-06T06:03:10;11.20;;;5.18;;
65831;SDS011;52593;42.648;23.332;2023-08-06T06:05:37;11.23;;;5.83;;
65831;SDS011;52593;42.648;23.332;2023-08-06T06:08:04;12.43;;;5.85;;
65831;SDS011;52593;42.648;23.332;2023-08-06T06:10:29;11.87;;;6.30;;
65831;SDS011;52593;42.648;23.332;2023-08-06T06:12:54;13.47;;;6.50;;
65831;SDS011;52593;42.648;23.332;2023-08-06T06:15:20;12.38;;;5.60;;
65831;SDS011;52593;42.648;23.332;2023-08-06T06:17:45;13.07;;;6.27;;
65831;SDS011;52593;42.648;23.332;2023-08-06T06:20:10;11.67;;;5.60;;
65831;SDS011;52593;42.648;23.332;2023-08-06T06:22:36;9.73;;;4.23;;
65831;SDS011;52593;42.648;23.332;2023-08-06T06:25:02;6.43;;;2.75;;
65831;SDS011;52593;42.648;23.332;2023-08-06T06:27:29;5.20;;;2.15;;
65831;SDS011;52593;42.648;23.332;2023-08-06T06:29:54;6.80;;;2.50;;
65831;SDS011;52593;42.648;23.332;2023-08-06T06:32:20;9.07;;;3.40;;
65831;SDS011;52593;42.648;23.332;2023-08-06T06:34:45;7.00;;;2.65;;
65831;SDS011;52593;42.648;23.332;2023-08-06T06:37:11;6.47;;;2.90;;
65831;SDS011;52593;42.648;23.332;2023-08-06T06:39:36;6.67;;;2.93;;
65831;SDS011;52593;42.648;23.332;2023-08-06T06:42:02;5.47;;;2.13;;
65831;SDS011;52593;42.648;23.332;2023-08-06T06:44:27;6.57;;;2.77;;
65831;SDS011;52593;42.648;23.332;2023-08-06T06:46:52;6.50;;;2.63;;
65831;SDS011;52593;42.648;23.332;2023-08-06T06:49:18;4.77;;;2.03;;
65831;SDS011;52593;42.648;23.332;2023-08-06T06:51:43;4.63;;;1.83;;
65831;SDS011;52593;42.648;23.332;2023-08-06T06:54:09;4.13;;;1.60;;
65831;SDS011;52593;42.648;23.332;2023-08-06T06:56:34;5.23;;;2.40;;
65831;SDS011;52593;42.648;23.332;2023-08-06T06:59:00;6.40;;;3.03;;
65831;SDS011;52593;42.648;23.332;2023-08-06T07:01:25;6.70;;;3.05;;
65831;SDS011;52593;42.648;23.332;2023-08-06T07:03:50;7.17;;;3.00;;
65831;SDS011;52593;42.648;23.332;2023-08-06T07:06:16;9.77;;;3.87;;
65831;SDS011;52593;42.648;23.332;2023-08-06T07:08:43;10.88;;;4.40;;
65831;SDS011;52593;42.648;23.332;2023-08-06T07:11:09;9.87;;;4.57;;
65831;SDS011;52593;42.648;23.332;2023-08-06T07:13:34;9.73;;;4.82;;
65831;SDS011;52593;42.648;23.332;2023-08-06T07:16:00;9.93;;;5.17;;
65831;SDS011;52593;42.648;23.332;2023-08-06T07:18:26;8.45;;;4.35;;
65831;SDS011;52593;42.648;23.332;2023-08-06T07:20:52;8.70;;;3.77;;
65831;SDS011;52593;42.648;23.332;2023-08-06T07:23:19;8.73;;;3.55;;
65831;SDS011;52593;42.648;23.332;2023-08-06T07:25:46;6.57;;;3.08;;
65831;SDS011;52593;42.648;23.332;2023-08-06T07:28:12;5.93;;;2.80;;
65831;SDS011;52593;42.648;23.332;2023-08-06T07:30:38;7.90;;;2.50;;
65831;SDS011;52593;42.648;23.332;2023-08-06T07:33:04;5.83;;;2.60;;
65831;SDS011;52593;42.648;23.332;2023-08-06T07:35:30;5.13;;;2.08;;
65831;SDS011;52593;42.648;23.332;2023-08-06T07:37:55;5.20;;;2.30;;
65831;SDS011;52593;42.648;23.332;2023-08-06T07:40:21;5.20;;;2.50;;
65831;SDS011;52593;42.648;23.332;2023-08-06T07:42:46;5.30;;;2.53;;
65831;SDS011;52593;42.648;23.332;2023-08-06T07:45:11;5.13;;;1.97;;
65831;SDS011;52593;42.648;23.332;2023-08-06T07:47:37;5.10;;;2.70;;
65831;SDS011;52593;42.648;23.332;2023-08-06T07:50:02;5.00;;;2.33;;
65831;SDS011;52593;42.648;23.332;2023-08-06T07:52:28;6.82;;;2.28;;
65831;SDS011;52593;42.648;23.332;2023-08-06T07:54:53;7.03;;;2.73;;
65831;SDS011;52593;42.648;23.332;2023-08-06T07:57:19;5.47;;;2.60;;
65831;SDS011;52593;42.648;23.332;2023-08-06T07:59:44;6.40;;;2.60;;
65831;SDS011;52593;42.648;23.332;2023-08-06T08:02:09;5.43;;;2.45;;
65831;SDS011;52593;42.648;23.332;2023-08-06T08:04:35;6.77;;;2.70;;
65831;SDS011;52593;42.648;23.332;2023-08-06T08:07:00;6.67;;;2.60;;
65831;SDS011;52593;42.648;23.332;2023-08-06T08:09:26;6.57;;;2.67;;
65831;SDS011;52593;42.648;23.332;2023-08-06T08:11:51;5.78;;;2.80;;
65831;SDS011;52593;42.648;23.332;2023-08-06T08:14:17;5.93;;;2.60;;
65831;SDS011;52593;42.648;23.332;2023-08-06T08:16:42;6.57;;;2.80;;
65831;SDS011;52593;42.648;23.332;2023-08-06T08:19:08;7.43;;;3.13;;
65831;SDS011;52593;42.648;23.332;2023-08-06T08:21:33;7.40;;;2.93;;
65831;SDS011;52593;42.648;23.332;2023-08-06T08:24:00;6.83;;;3.17;;
65831;SDS011;52593;42.648;23.332;2023-08-06T08:26:26;6.30;;;3.10;;
65831;SDS011;52593;42.648;23.332;2023-08-06T08:28:52;5.50;;;2.90;;
65831;SDS011;52593;42.648;23.332;2023-08-06T08:31:18;6.20;;;3.03;;
65831;SDS011;52593;42.648;23.332;2023-08-06T08:33:44;6.25;;;3.33;;
65831;SDS011;52593;42.648;23.332;2023-08-06T08:36:09;5.47;;;2.40;;
65831;SDS011;52593;42.648;23.332;2023-08-06T08:38:35;5.40;;;2.83;;
65831;SDS011;52593;42.648;23.332;2023-08-06T08:41:00;6.50;;;3.13;;
65831;SDS011;52593;42.648;23.332;2023-08-06T08:43:26;6.20;;;3.03;;
65831;SDS011;52593;42.648;23.332;2023-08-06T08:45:53;6.75;;;3.10;;
65831;SDS011;52593;42.648;23.332;2023-08-06T08:48:21;5.60;;;2.70;;
65831;SDS011;52593;42.648;23.332;2023-08-06T08:50:48;6.38;;;2.65;;
65831;SDS011;52593;42.648;23.332;2023-08-06T08:53:15;6.90;;;3.10;;
65831;SDS011;52593;42.648;23.332;2023-08-06T08:55:42;5.40;;;2.90;;
65831;SDS011;52593;42.648;23.332;2023-08-06T08:58:09;5.75;;;2.90;;
65831;SDS011;52593;42.648;23.332;2023-08-06T09:00:35;5.80;;;2.85;;
65831;SDS011;52593;42.648;23.332;2023-08-06T09:03:01;6.07;;;2.80;;
65831;SDS011;52593;42.648;23.332;2023-08-06T09:05:29;7.43;;;2.45;;
65831;SDS011;52593;42.648;23.332;2023-08-06T09:07:56;8.13;;;2.55;;
65831;SDS011;52593;42.648;23.332;2023-08-06T09:10:27;5.85;;;3.00;;
65831;SDS011;52593;42.648;23.332;2023-08-06T09:12:53;6.90;;;3.20;;
65831;SDS011;52593;42.648;23.332;2023-08-06T09:15:20;6.22;;;2.65;;
65831;SDS011;52593;42.648;23.332;2023-08-06T09:17:48;6.75;;;3.03;;
65831;SDS011;52593;42.648;23.332;2023-08-06T09:20:14;6.27;;;3.00;;
65831;SDS011;52593;42.648;23.332;2023-08-06T09:22:40;5.75;;;2.50;;
65831;SDS011;52593;42.648;23.332;2023-08-06T09:25:06;6.60;;;3.30;;
65831;SDS011;52593;42.648;23.332;2023-08-06T09:27:35;8.13;;;2.80;;
65831;SDS011;52593;42.648;23.332;2023-08-06T09:30:02;6.25;;;2.88;;
65831;SDS011;52593;42.648;23.332;2023-08-06T09:32:50;5.65;;;2.10;;
65831;SDS011;52593;42.648;23.332;2023-08-06T09:35:17;5.33;;;2.63;;
65831;SDS011;52593;42.648;23.332;2023-08-06T09:37:43;5.15;;;2.45;;
65831;SDS011;52593;42.648;23.332;2023-08-06T09:40:29;4.80;;;2.13;;
65831;SDS011;52593;42.648;23.332;2023-08-06T09:42:56;4.40;;;2.00;;
65831;SDS011;52593;42.648;23.332;2023-08-06T09:45:23;5.30;;;2.45;;
65831;SDS011;52593;42.648;23.332;2023-08-06T09:47:56;6.97;;;2.37;;
65831;SDS011;52593;42.648;23.332;2023-08-06T09:50:22;5.53;;;2.80;;
65831;SDS011;52593;42.648;23.332;2023-08-06T09:52:48;5.70;;;2.30;;
65831;SDS011;52593;42.648;23.332;2023-08-06T09:55:14;5.72;;;2.63;;
65831;SDS011;52593;42.648;23.332;2023-08-06T09:57:40;5.47;;;2.40;;
65831;SDS011;52593;42.648;23.332;2023-08-06T10:00:09;5.63;;;2.28;;
65831;SDS011;52593;42.648;23.332;2023-08-06T10:02:39;5.65;;;2.70;;
65831;SDS011;52593;42.648;23.332;2023-08-06T10:05:06;5.13;;;2.30;;
65831;SDS011;52593;42.648;23.332;2023-08-06T10:07:32;5.65;;;2.13;;
65831;SDS011;52593;42.648;23.332;2023-08-06T10:09:58;4.53;;;1.90;;
65831;SDS011;52593;42.648;23.332;2023-08-06T10:12:24;7.20;;;2.17;;
65831;SDS011;52593;42.648;23.332;2023-08-06T10:14:54;5.75;;;2.38;;
65831;SDS011;52593;42.648;23.332;2023-08-06T10:17:21;5.32;;;2.30;;
65831;SDS011;52593;42.648;23.332;2023-08-06T10:19:48;5.47;;;2.30;;
65831;SDS011;52593;42.648;23.332;2023-08-06T10:22:15;4.90;;;2.40;;
65831;SDS011;52593;42.648;23.332;2023-08-06T10:24:52;6.85;;;2.50;;
65831;SDS011;52593;42.648;23.332;2023-08-06T10:27:23;5.18;;;2.33;;
65831;SDS011;52593;42.648;23.332;2023-08-06T10:32:50;4.43;;;2.25;;
65831;SDS011;52593;42.648;23.332;2023-08-06T10:38:03;5.78;;;2.20;;
65831;SDS011;52593;42.648;23.332;2023-08-06T10:40:30;4.95;;;1.67;;
65831;SDS011;52593;42.648;23.332;2023-08-06T10:43:00;4.03;;;1.40;;
65831;SDS011;52593;42.648;23.332;2023-08-06T10:45:26;5.20;;;1.60;;
65831;SDS011;52593;42.648;23.332;2023-08-06T10:47:54;6.23;;;2.00;;
65831;SDS011;52593;42.648;23.332;2023-08-06T10:50:21;5.07;;;2.13;;
65831;SDS011;52593;42.648;23.332;2023-08-06T10:52:47;6.03;;;2.17;;
65831;SDS011;52593;42.648;23.332;2023-08-06T10:55:13;4.20;;;1.70;;
65831;SDS011;52593;42.648;23.332;2023-08-06T10:57:39;5.35;;;2.20;;
65831;SDS011;52593;42.648;23.332;2023-08-06T11:00:05;4.90;;;2.20;;
65831;SDS011;52593;42.648;23.332;2023-08-06T11:02:38;4.72;;;1.80;;
65831;SDS011;52593;42.648;23.332;2023-08-06T11:05:09;4.68;;;2.03;;
65831;SDS011;52593;42.648;23.332;2023-08-06T11:07:36;4.45;;;2.00;;
65831;SDS011;52593;42.648;23.332;2023-08-06T11:10:04;5.45;;;1.98;;
65831;SDS011;52593;42.648;23.332;2023-08-06T11:12:32;5.03;;;2.10;;
65831;SDS011;52593;42.648;23.332;2023-08-06T11:14:58;5.65;;;2.42;;
65831;SDS011;52593;42.648;23.332;2023-08-06T11:17:24;4.85;;;2.10;;
65831;SDS011;52593;42.648;23.332;2023-08-06T11:19:49;5.03;;;2.05;;
65831;SDS011;52593;42.648;23.332;2023-08-06T11:22:15;5.67;;;2.60;;
65831;SDS011;52593;42.648;23.332;2023-08-06T11:24:41;5.13;;;2.35;;
65831;SDS011;52593;42.648;23.332;2023-08-06T11:27:15;5.63;;;2.00;;
65831;SDS011;52593;42.648;23.332;2023-08-06T11:29:42;6.55;;;1.63;;
65831;SDS011;52593;42.648;23.332;2023-08-06T11:32:09;5.60;;;2.08;;
65831;SDS011;52593;42.648;23.332;2023-08-06T11:34:35;5.43;;;2.07;;
65831;SDS011;52593;42.648;23.332;2023-08-06T11:37:02;5.45;;;2.00;;
65831;SDS011;52593;42.648;23.332;2023-08-06T11:39:31;6.43;;;2.70;;
65831;SDS011;52593;42.648;23.332;2023-08-06T11:41:57;8.05;;;3.30;;
65831;SDS011;52593;42.648;23.332;2023-08-06T11:44:25;7.47;;;2.70;;
65831;SDS011;52593;42.648;23.332;2023-08-06T11:46:53;5.97;;;2.67;;
65831;SDS011;52593;42.648;23.332;2023-08-06T11:55:07;6.03;;;2.80;;
65831;SDS011;52593;42.648;23.332;2023-08-06T11:57:36;6.63;;;3.08;;
65831;SDS011;52593;42.648;23.332;2023-08-06T12:00:06;7.35;;;3.40;;
65831;SDS011;52593;42.648;23.332;2023-08-06T12:02:34;7.13;;;3.60;;
65831;SDS011;52593;42.648;23.332;2023-08-06T12:05:04;6.97;;;3.60;;
65831;SDS011;52593;42.648;23.332;2023-08-06T12:07:39;8.07;;;2.97;;
65831;SDS011;52593;42.648;23.332;2023-08-06T12:10:07;6.10;;;2.88;;
65831;SDS011;52593;42.648;23.332;2023-08-06T12:12:33;6.50;;;3.10;;
65831;SDS011;52593;42.648;23.332;2023-08-06T12:15:00;6.55;;;3.17;;
65831;SDS011;52593;42.648;23.332;2023-08-06T12:17:25;7.07;;;3.37;;
65831;SDS011;52593;42.648;23.332;2023-08-06T12:19:51;6.30;;;3.23;;
65831;SDS011;52593;42.648;23.332;2023-08-06T12:22:16;7.05;;;3.58;;
65831;SDS011;52593;42.648;23.332;2023-08-06T12:24:43;7.57;;;3.70;;
65831;SDS011;52593;42.648;23.332;2023-08-06T12:27:09;7.40;;;3.83;;
65831;SDS011;52593;42.648;23.332;2023-08-06T12:29:35;7.32;;;3.90;;
65831;SDS011;52593;42.648;23.332;2023-08-06T12:32:02;7.40;;;3.90;;
65831;SDS011;52593;42.648;23.332;2023-08-06T12:34:28;8.25;;;3.63;;
65831;SDS011;52593;42.648;23.332;2023-08-06T12:36:54;7.30;;;3.83;;
65831;SDS011;52593;42.648;23.332;2023-08-06T12:39:19;7.97;;;4.17;;
65831;SDS011;52593;42.648;23.332;2023-08-06T12:41:44;6.63;;;3.70;;
65831;SDS011;52593;42.648;23.332;2023-08-06T12:44:11;7.30;;;4.03;;
65831;SDS011;52593;42.648;23.332;2023-08-06T12:46:37;8.15;;;4.28;;
65831;SDS011;52593;42.648;23.332;2023-08-06T12:49:02;7.83;;;4.43;;
65831;SDS011;52593;42.648;23.332;2023-08-06T12:51:28;8.18;;;4.50;;
65831;SDS011;52593;42.648;23.332;2023-08-06T12:53:53;7.83;;;4.37;;
65831;SDS011;52593;42.648;23.332;2023-08-06T12:56:18;7.50;;;4.00;;
65831;SDS011;52593;42.648;23.332;2023-08-06T12:58:44;9.03;;;4.47;;
65831;SDS011;52593;42.648;23.332;2023-08-06T13:01:09;7.20;;;4.20;;
65831;SDS011;52593;42.648;23.332;2023-08-06T13:03:34;7.80;;;4.10;;
65831;SDS011;52593;42.648;23.332;2023-08-06T13:06:00;6.97;;;4.40;;
65831;SDS011;52593;42.648;23.332;2023-08-06T13:08:25;6.77;;;4.03;;
65831;SDS011;52593;42.648;23.332;2023-08-06T13:10:51;8.10;;;4.03;;
65831;SDS011;52593;42.648;23.332;2023-08-06T13:13:16;7.25;;;4.30;;
65831;SDS011;52593;42.648;23.332;2023-08-06T13:15:42;7.23;;;4.53;;
65831;SDS011;52593;42.648;23.332;2023-08-06T13:18:07;6.73;;;4.50;;
65831;SDS011;52593;42.648;23.332;2023-08-06T13:20:32;6.90;;;4.00;;
65831;SDS011;52593;42.648;23.332;2023-08-06T13:22:58;8.65;;;4.38;;
65831;SDS011;52593;42.648;23.332;2023-08-06T13:25:25;7.38;;;3.53;;
65831;SDS011;52593;42.648;23.332;2023-08-06T13:27:51;7.60;;;4.37;;
65831;SDS011;52593;42.648;23.332;2023-08-06T13:30:17;8.87;;;4.60;;
65831;SDS011;52593;42.648;23.332;2023-08-06T13:32:45;8.90;;;4.00;;
65831;SDS011;52593;42.648;23.332;2023-08-06T13:35:11;8.05;;;3.72;;
65831;SDS011;52593;42.648;23.332;2023-08-06T13:37:36;8.80;;;3.97;;
65831;SDS011;52593;42.648;23.332;2023-08-06T13:40:02;7.40;;;3.77;;
65831;SDS011;52593;42.648;23.332;2023-08-06T13:42:27;7.00;;;4.15;;
65831;SDS011;52593;42.648;23.332;2023-08-06T13:44:54;7.53;;;4.15;;
65831;SDS011;52593;42.648;23.332;2023-08-06T13:47:24;7.27;;;4.20;;
65831;SDS011;52593;42.648;23.332;2023-08-06T13:49:49;6.65;;;3.72;;
65831;SDS011;52593;42.648;23.332;2023-08-06T13:52:15;7.33;;;3.80;;
65831;SDS011;52593;42.648;23.332;2023-08-06T13:54:40;6.50;;;3.53;;
65831;SDS011;52593;42.648;23.332;2023-08-06T13:57:06;7.50;;;3.80;;
65831;SDS011;52593;42.648;23.332;2023-08-06T13:59:31;6.47;;;3.60;;
65831;SDS011;52593;42.648;23.332;2023-08-06T14:01:57;8.57;;;3.70;;
65831;SDS011;52593;42.648;23.332;2023-08-06T14:04:24;6.10;;;3.92;;
65831;SDS011;52593;42.648;23.332;2023-08-06T14:06:50;5.53;;;3.60;;
65831;SDS011;52593;42.648;23.332;2023-08-06T14:09:15;8.10;;;3.70;;
65831;SDS011;52593;42.648;23.332;2023-08-06T14:11:43;6.27;;;3.90;;
65831;SDS011;52593;42.648;23.332;2023-08-06T14:14:09;7.00;;;4.00;;
65831;SDS011;52593;42.648;23.332;2023-08-06T14:16:34;8.27;;;4.57;;
65831;SDS011;52593;42.648;23.332;2023-08-06T14:19:00;5.80;;;3.77;;
65831;SDS011;52593;42.648;23.332;2023-08-06T14:21:25;6.77;;;3.50;;
65831;SDS011;52593;42.648;23.332;2023-08-06T14:23:50;6.70;;;3.90;;
65831;SDS011;52593;42.648;23.332;2023-08-06T14:26:16;5.83;;;3.70;;
65831;SDS011;52593;42.648;23.332;2023-08-06T14:28:42;7.32;;;3.78;;
65831;SDS011;52593;42.648;23.332;2023-08-06T14:31:07;6.27;;;3.80;;
65831;SDS011;52593;42.648;23.332;2023-08-06T14:33:32;9.40;;;4.33;;
65831;SDS011;52593;42.648;23.332;2023-08-06T14:35:58;7.80;;;3.93;;
65831;SDS011;52593;42.648;23.332;2023-08-06T14:38:23;8.57;;;4.10;;
65831;SDS011;52593;42.648;23.332;2023-08-06T14:40:49;6.33;;;3.60;;
65831;SDS011;52593;42.648;23.332;2023-08-06T14:43:15;7.20;;;3.53;;
65831;SDS011;52593;42.648;23.332;2023-08-06T14:45:40;6.97;;;4.23;;